createdAt,value
2023-04-01T00:00:40.148Z,99705.22
2023-04-01T00:03:08.158Z,99696.34
2023-04-01T00:05:36.174Z,99691.97
2023-04-01T00:08:04.006Z,99702.44
2023-04-01T00:10:33.365Z,99700.66
2023-04-01T00:13:02.803Z,99697.09
2023-04-01T00:15:31.091Z,99666.75
2023-04-01T00:17:59.988Z,99691.50
2023-04-01T00:20:27.992Z,99706.56
2023-04-01T00:22:56.042Z,99705.78
2023-04-01T00:25:24.221Z,99719.88
2023-04-01T00:27:53.489Z,99738.53
2023-04-01T00:30:21.548Z,99733.38
2023-04-01T00:32:49.496Z,99744.03
2023-04-01T00:35:17.900Z,99759.94
2023-04-01T00:37:45.868Z,99776.69
2023-04-01T00:40:26.903Z,99770.50
2023-04-01T00:42:56.614Z,99760.00
2023-04-01T00:45:36.248Z,99766.19
2023-04-01T00:48:08.061Z,99771.72
2023-04-01T00:50:37.612Z,99785.91
2023-04-01T00:53:07.577Z,99793.88
2023-04-01T00:55:40.503Z,99806.44
2023-04-01T00:58:17.113Z,99823.31
2023-04-01T01:00:45.645Z,99836.53
2023-04-01T01:03:13.813Z,99844.63
2023-04-01T01:06:08.256Z,99850.81
2023-04-01T01:08:49.673Z,99849.28
2023-04-01T01:11:25.296Z,99862.41
2023-04-01T01:14:04.041Z,99857.06
2023-04-01T01:16:34.350Z,99843.09
2023-04-01T01:19:12.189Z,99832.59
2023-04-01T01:22:06.003Z,99838.81
2023-04-01T01:24:51.721Z,99834.50
2023-04-01T01:27:22.971Z,99817.84
2023-04-01T01:30:16.653Z,99845.34
2023-04-01T01:32:57.894Z,99867.50
2023-04-01T01:35:33.647Z,99860.63
2023-04-01T01:38:04.598Z,99870.44
2023-04-01T01:40:36.429Z,99883.88
2023-04-01T01:43:10.372Z,99890.88
2023-04-01T01:45:42.669Z,99893.56
2023-04-01T01:48:12.789Z,99905.91
2023-04-01T01:50:43.800Z,99926.13
2023-04-01T01:53:13.946Z,99919.94
2023-04-01T01:55:45.083Z,99930.50
2023-04-01T01:58:17.404Z,99922.53
2023-04-01T02:00:51.785Z,99929.56
2023-04-01T02:03:23.317Z,99937.47
2023-04-01T02:05:55.102Z,99913.56
2023-04-01T02:08:28.735Z,99915.38
2023-04-01T02:11:00.104Z,99916.16
2023-04-01T02:13:33.245Z,99904.53
2023-04-01T02:16:05.959Z,99897.31
2023-04-01T02:18:38.337Z,99870.84
2023-04-01T02:21:09.824Z,99867.22
2023-04-01T02:23:39.533Z,99875.91
2023-04-01T02:26:10.469Z,99856.50
2023-04-01T02:28:41.163Z,99866.03
2023-04-01T02:31:10.907Z,99851.94
2023-04-01T02:33:40.935Z,99847.53
2023-04-01T02:36:14.256Z,99844.88
2023-04-01T02:38:42.953Z,99842.22
2023-04-01T02:41:10.856Z,99845.84
2023-04-01T02:43:39.005Z,99837.06
2023-04-01T02:46:08.440Z,99852.88
2023-04-01T02:48:36.983Z,99833.63
2023-04-01T02:51:05.536Z,99810.97
2023-04-01T02:53:34.979Z,99834.88
2023-04-01T02:56:03.061Z,99854.38
2023-04-01T02:58:31.094Z,99861.59
2023-04-01T03:00:59.014Z,99872.31
2023-04-01T03:03:27.276Z,99906.88
2023-04-01T03:05:57.168Z,99934.38
2023-04-01T03:08:25.446Z,99964.44
2023-04-01T03:10:54.753Z,99981.13
2023-04-01T03:13:22.567Z,99984.72
2023-04-01T03:15:50.765Z,99983.94
2023-04-01T03:18:19.156Z,99991.16
2023-04-01T03:20:47.287Z,99982.44
2023-04-01T03:23:17.439Z,99997.47
2023-04-01T03:25:45.573Z,100009.81
2023-04-01T03:28:15.341Z,100033.72
2023-04-01T03:30:43.512Z,100043.53
2023-04-01T03:33:11.463Z,100040.16
2023-04-01T03:35:39.363Z,100044.44
2023-04-01T03:38:07.450Z,100056.84
2023-04-01T03:40:38.331Z,100057.69
2023-04-01T03:43:09.507Z,100065.63
2023-04-01T03:45:38.859Z,100058.66
2023-04-01T03:48:07.268Z,100045.41
2023-04-01T03:50:36.982Z,100051.59
2023-04-01T03:53:04.876Z,100072.75
2023-04-01T03:55:33.278Z,100078.09
2023-04-01T03:58:03.161Z,100076.28
2023-04-01T04:00:31.213Z,100088.63
2023-04-01T04:03:01.684Z,100078.94
2023-04-01T04:05:30.050Z,100083.41
2023-04-01T04:07:57.895Z,100093.97
2023-04-01T04:10:26.102Z,100087.78
2023-04-01T04:12:54.279Z,100083.31
2023-04-01T04:15:22.263Z,100089.59
2023-04-01T04:17:50.682Z,100082.53
2023-04-01T04:20:20.719Z,100069.38
2023-04-01T04:22:48.587Z,100084.41
2023-04-01T04:25:16.784Z,100084.59
2023-04-01T04:27:45.043Z,100105.72
2023-04-01T04:30:13.394Z,100107.63
2023-04-01T04:32:43.050Z,100121.72
2023-04-01T04:35:11.194Z,100108.63
2023-04-01T04:37:40.601Z,100125.50
2023-04-01T04:40:10.151Z,100151.00
2023-04-01T04:42:38.084Z,100154.63
2023-04-01T04:45:06.892Z,100151.97
2023-04-01T04:47:34.860Z,100133.66
2023-04-01T04:50:02.837Z,100121.34
2023-04-01T04:52:30.873Z,100159.34
2023-04-01T04:55:00.578Z,100169.06
2023-04-01T04:57:28.502Z,100178.69
2023-04-01T04:59:56.698Z,100199.94
2023-04-01T05:02:24.817Z,100206.97
2023-04-01T05:04:53.043Z,100198.91
2023-04-01T05:07:21.253Z,100201.56
2023-04-01T05:09:49.440Z,100204.16
2023-04-01T05:12:18.818Z,100197.88
2023-04-01T05:14:46.969Z,100191.69
2023-04-01T05:17:15.044Z,100182.78
2023-04-01T05:19:43.124Z,100195.06
2023-04-01T05:22:11.386Z,100196.78
2023-04-01T05:24:39.362Z,100198.41
2023-04-01T05:27:07.330Z,100204.47
2023-04-01T05:29:36.730Z,100200.94
2023-04-01T05:32:04.695Z,100195.50
2023-04-01T05:34:32.662Z,100204.28
2023-04-01T05:37:00.629Z,100207.66
2023-04-01T05:39:28.541Z,100213.66
2023-04-01T05:41:56.575Z,100203.78
2023-04-01T05:44:24.669Z,100210.69
2023-04-01T05:46:54.010Z,100187.56
2023-04-01T05:49:22.044Z,100187.41
2023-04-01T05:51:50.010Z,100162.56
2023-04-01T05:54:17.893Z,100158.88
2023-04-01T05:56:47.627Z,100141.06
2023-04-01T05:59:17.034Z,100126.78
2023-04-01T06:01:44.984Z,100119.56
2023-04-01T06:04:17.740Z,100101.66
2023-04-01T06:06:46.302Z,100082.22
2023-04-01T06:09:17.994Z,100104.84
2023-04-01T06:12:02.465Z,100085.34
2023-04-01T06:14:39.969Z,100019.47
2023-04-01T06:17:22.022Z,100017.06
2023-04-01T06:19:55.303Z,99946.50
2023-04-01T06:22:52.859Z,99908.00
2023-04-01T06:25:46.599Z,99891.50
2023-04-01T06:28:45.542Z,99864.88
2023-04-01T06:31:24.711Z,99844.44
2023-04-01T06:34:06.207Z,99836.19
2023-04-01T06:36:53.256Z,99852.44
2023-04-01T06:39:42.323Z,99842.63
2023-04-01T06:42:32.404Z,99826.25
2023-04-01T06:45:10.776Z,99867.34
2023-04-01T06:47:50.302Z,99786.75
2023-04-01T06:50:27.068Z,99847.28
2023-04-01T06:53:04.596Z,99805.63
2023-04-01T06:55:41.486Z,99739.38
2023-04-01T06:58:20.898Z,99712.50
2023-04-01T07:00:52.851Z,99703.72
2023-04-01T07:03:25.524Z,99764.56
2023-04-01T07:05:55.081Z,99785.06
2023-04-01T07:08:27.979Z,99785.06
2023-04-01T07:11:00.499Z,99783.50
2023-04-01T07:13:33.172Z,99805.56
2023-04-01T07:16:09.366Z,99813.34
2023-04-01T07:18:42.425Z,99807.19
2023-04-01T07:21:24.388Z,99783.50
2023-04-01T07:23:56.969Z,99781.94
2023-04-01T07:26:26.347Z,99788.28
2023-04-01T07:28:55.250Z,99754.84
2023-04-01T07:31:44.776Z,99743.53
2023-04-01T07:34:17.730Z,99744.44
2023-04-01T07:36:50.960Z,99773.38
2023-04-01T07:39:32.619Z,99728.09
2023-04-01T07:42:08.059Z,99761.34
2023-04-01T07:44:43.861Z,99764.94
2023-04-01T07:47:21.421Z,99782.31
2023-04-01T07:50:02.986Z,99706.53
2023-04-01T07:52:38.265Z,99748.56
2023-04-01T07:55:15.744Z,99754.56
2023-04-01T07:57:51.387Z,99721.81
2023-04-01T08:00:25.133Z,99738.47
2023-04-01T08:03:10.481Z,99768.22
2023-04-01T08:05:46.611Z,99746.44
2023-04-01T08:08:22.137Z,99751.75
2023-04-01T08:10:58.726Z,99787.88
2023-04-01T08:13:36.864Z,99777.84
2023-04-01T08:16:15.578Z,99792.34
2023-04-01T08:18:54.466Z,99779.22
2023-04-01T08:21:25.610Z,99766.78
2023-04-01T08:23:57.611Z,99759.06
2023-04-01T08:26:35.516Z,99733.25
2023-04-01T08:29:09.082Z,99708.72
2023-04-01T08:31:42.953Z,99727.34
2023-04-01T08:34:17.465Z,99698.41
2023-04-01T08:36:50.746Z,99681.78
2023-04-01T08:39:22.566Z,99702.53
2023-04-01T08:42:34.106Z,99697.22
2023-04-01T08:45:28.535Z,99698.22
2023-04-01T08:48:19.806Z,99728.78
2023-04-01T08:51:09.569Z,99771.06
2023-04-01T08:53:52.792Z,99704.44
2023-04-01T08:56:26.080Z,99728.34
2023-04-01T08:59:23.754Z,99716.69
2023-04-01T09:02:18.361Z,99709.75
2023-04-01T09:05:25.418Z,99768.00
2023-04-01T09:08:04.486Z,99737.63
2023-04-01T09:10:46.878Z,99759.34
2023-04-01T09:13:36.682Z,99730.88
2023-04-01T09:16:32.940Z,99772.59
2023-04-01T09:19:19.335Z,99755.69
2023-04-01T09:22:31.458Z,99733.00
2023-04-01T09:25:25.181Z,99704.75
2023-04-01T09:27:59.688Z,99736.16
2023-04-01T09:30:52.164Z,99702.59
2023-04-01T09:33:54.570Z,99736.09
2023-04-01T09:36:35.542Z,99711.56
2023-04-01T09:39:30.100Z,99756.44
2023-04-01T09:42:19.869Z,99717.66
2023-04-01T09:44:56.234Z,99723.13
2023-04-01T09:47:46.060Z,99739.59
2023-04-01T09:50:29.886Z,99710.81
2023-04-01T09:53:07.419Z,99771.72
2023-04-01T09:56:13.755Z,99701.81
2023-04-01T09:59:24.415Z,99700.91
2023-04-01T10:02:31.765Z,99686.94
2023-04-01T10:05:35.386Z,99712.25
2023-04-01T10:08:37.344Z,99602.53
2023-04-01T10:11:26.252Z,99605.31
2023-04-01T10:14:21.834Z,99657.59
2023-04-01T10:17:28.677Z,99650.91
2023-04-01T10:20:44.282Z,99664.56
2023-04-01T10:23:50.442Z,99776.53
2023-04-01T10:26:34.646Z,99767.84
2023-04-01T10:29:30.650Z,99791.66
2023-04-01T10:32:36.830Z,99822.22
2023-04-01T10:35:48.809Z,99747.47
2023-04-01T10:38:46.584Z,99713.44
2023-04-01T10:41:41.362Z,99626.28
2023-04-01T10:44:35.910Z,99609.34
2023-04-01T10:47:38.579Z,99719.00
2023-04-01T10:50:27.648Z,99641.84
2023-04-01T10:53:26.034Z,99581.06
2023-04-01T10:56:33.620Z,99701.84
2023-04-01T10:59:47.698Z,99624.28
2023-04-01T11:03:04.702Z,99690.31
2023-04-01T11:06:05.148Z,99726.06
2023-04-01T11:09:16.116Z,99689.91
2023-04-01T11:12:11.764Z,99659.75
2023-04-01T11:15:23.817Z,99582.22
2023-04-01T11:18:24.171Z,99610.16
2023-04-01T11:21:13.926Z,99666.94
2023-04-01T11:24:05.505Z,99593.97
2023-04-01T11:26:51.597Z,99719.09
2023-04-01T11:29:59.062Z,99705.63
2023-04-01T11:32:41.503Z,99646.09
2023-04-01T11:35:33.189Z,99652.81
2023-04-01T11:38:15.263Z,99707.56
2023-04-01T11:40:49.853Z,99694.13
2023-04-01T11:43:33.364Z,99714.47
2023-04-01T11:51:44.714Z,99725.88
2023-04-01T11:54:13.146Z,99716.25
2023-04-01T11:57:10.438Z,99703.59
2023-04-01T11:59:54.228Z,99755.47
2023-04-01T12:02:31.776Z,99744.22
2023-04-01T12:05:24.270Z,99732.56
2023-04-01T12:08:12.975Z,99740.28
2023-04-01T12:10:47.533Z,99791.94
2023-04-01T12:13:26.552Z,99825.47
2023-04-01T12:16:05.536Z,99725.19
2023-04-01T12:18:40.829Z,99730.50
2023-04-01T12:21:22.949Z,99644.31
2023-04-01T12:24:20.663Z,99718.13
2023-04-01T12:27:04.533Z,99699.63
2023-04-01T12:29:51.493Z,99725.59
2023-04-01T12:32:27.575Z,99727.13
2023-04-01T12:35:05.761Z,99712.47
2023-04-01T12:37:43.947Z,99683.19
2023-04-01T12:40:34.827Z,99721.25
2023-04-01T12:43:30.026Z,99747.03
2023-04-01T12:46:07.956Z,99725.75
2023-04-01T12:49:09.149Z,99711.31
2023-04-01T12:51:58.645Z,99766.78
2023-04-01T12:55:06.323Z,99771.06
2023-04-01T12:57:57.059Z,99777.16
2023-04-01T13:00:45.631Z,99724.84
2023-04-01T13:03:31.141Z,99766.06
2023-04-01T13:06:27.685Z,99739.53
2023-04-01T13:09:04.065Z,99774.13
2023-04-01T13:11:40.867Z,99802.09
2023-04-01T13:14:35.744Z,99801.31
2023-04-01T13:17:12.739Z,99809.09
2023-04-01T13:19:57.954Z,99810.38
2023-04-01T13:22:44.465Z,99752.31
2023-04-01T13:25:26.244Z,99829.28
2023-04-01T13:28:00.534Z,99777.06
2023-04-01T13:30:35.453Z,99787.47
2023-04-01T13:33:14.510Z,99782.00
2023-04-01T13:35:48.756Z,99717.84
2023-04-01T13:38:39.818Z,99750.81
2023-04-01T13:41:20.307Z,99701.44
2023-04-01T13:43:54.138Z,99736.41
2023-04-01T13:46:41.012Z,99724.50
2023-04-01T13:49:31.091Z,99720.34
2023-04-01T13:52:10.927Z,99649.50
2023-04-01T13:54:55.937Z,99697.22
2023-04-01T13:57:42.827Z,99660.06
2023-04-01T14:00:36.940Z,99702.50
2023-04-01T14:03:29.478Z,99661.66
2023-04-01T14:06:21.775Z,99657.31
2023-04-01T14:09:17.695Z,99643.16
2023-04-01T14:11:56.043Z,99622.66
2023-04-01T14:14:34.427Z,99544.91
2023-04-01T14:17:16.756Z,99616.56
2023-04-01T14:20:05.538Z,99644.00
2023-04-01T14:22:40.717Z,99577.06
2023-04-01T14:25:43.602Z,99701.34
2023-04-01T14:28:27.857Z,99618.72
2023-04-01T14:31:16.346Z,99656.53
2023-04-01T14:33:53.958Z,99686.66
2023-04-01T14:36:52.746Z,99677.31
2023-04-01T14:39:45.819Z,99725.50
2023-04-01T14:42:33.894Z,99714.13
2023-04-01T14:45:25.431Z,99767.22
2023-04-01T14:47:55.535Z,99706.66
2023-04-01T14:50:26.326Z,99681.38
2023-04-01T14:53:14.895Z,99720.38
2023-04-01T14:55:52.224Z,99742.59
2023-04-01T14:58:22.800Z,99821.75
2023-04-01T15:01:01.086Z,99698.31
2023-04-01T15:03:32.405Z,99740.63
2023-04-01T15:06:23.971Z,99647.00
2023-04-01T15:08:58.720Z,99725.13
2023-04-01T15:11:39.798Z,99677.50
2023-04-01T15:14:39.334Z,99705.66
2023-04-01T15:17:29.244Z,99702.00
2023-04-01T15:20:13.531Z,99703.78
2023-04-01T15:22:55.723Z,99692.56
2023-04-01T15:25:51.679Z,99711.25
2023-04-01T15:28:31.900Z,99784.59
2023-04-01T15:31:08.198Z,99695.22
2023-04-01T15:33:48.959Z,99701.16
2023-04-01T15:36:30.771Z,99719.94
2023-04-01T15:39:07.598Z,99695.50
2023-04-01T15:41:48.795Z,99696.66
2023-04-01T15:44:48.932Z,99706.25
2023-04-01T15:47:38.752Z,99718.78
2023-04-01T15:53:29.950Z,99737.84
2023-04-01T15:56:01.908Z,99714.94
2023-04-01T15:58:48.337Z,99691.81
2023-04-01T16:01:29.662Z,99747.38
2023-04-01T16:04:08.297Z,99706.34
2023-04-01T16:07:03.705Z,99672.13
2023-04-01T16:09:45.151Z,99730.44
2023-04-01T16:12:20.516Z,99701.66
2023-04-01T16:15:05.704Z,99718.97
2023-04-01T16:17:46.408Z,99683.22
2023-04-01T16:20:21.983Z,99706.94
2023-04-01T16:22:59.061Z,99658.13
2023-04-01T16:25:36.054Z,99711.50
2023-04-01T16:28:20.497Z,99682.88
2023-04-01T16:30:57.511Z,99688.16
2023-04-01T16:33:33.257Z,99709.50
2023-04-01T16:36:08.857Z,99763.91
2023-04-01T16:38:42.835Z,99764.84
2023-04-01T16:41:16.626Z,99790.66
2023-04-01T16:43:49.316Z,99869.69
2023-04-01T16:46:36.216Z,99881.09
2023-04-01T16:49:19.041Z,99865.88
2023-04-01T16:51:50.995Z,99875.78
2023-04-01T16:54:30.695Z,99844.66
2023-04-01T16:57:06.769Z,99861.66
2023-04-01T16:59:38.057Z,99879.44
2023-04-01T17:02:13.120Z,99913.75
2023-04-01T17:04:46.085Z,99931.41
2023-04-01T17:07:23.441Z,99917.53
2023-04-01T17:10:04.299Z,99880.19
2023-04-01T17:12:40.365Z,99893.63
2023-04-01T17:15:23.524Z,99912.00
2023-04-01T17:18:00.922Z,99906.00
2023-04-01T17:20:42.323Z,99895.41
2023-04-01T17:23:18.874Z,99860.59
2023-04-01T17:26:26.104Z,99865.13
2023-04-01T17:28:59.701Z,99867.94
2023-04-01T17:31:43.644Z,99917.16
2023-04-01T17:34:35.443Z,99911.31
2023-04-01T17:37:18.844Z,99906.41
2023-04-01T17:39:59.341Z,99929.38
2023-04-01T17:42:43.385Z,99941.78
2023-04-01T17:45:18.965Z,99964.69
2023-04-01T17:47:58.322Z,99956.16
2023-04-01T17:50:37.913Z,99951.81
2023-04-01T17:53:18.940Z,99980.06
2023-04-01T17:55:57.643Z,100000.38
2023-04-01T17:58:31.666Z,99992.56
2023-04-01T18:01:11.757Z,99997.88
2023-04-01T18:03:58.125Z,100015.47
2023-04-01T18:06:38.323Z,100049.50
2023-04-01T18:09:17.980Z,100024.31
2023-04-01T18:12:00.636Z,100054.16
2023-04-01T18:14:59.136Z,100048.00
2023-04-01T18:17:29.811Z,100029.06
2023-04-01T18:20:17.491Z,100073.94
2023-04-01T18:22:50.617Z,100023.13
2023-04-01T18:25:23.817Z,100014.50
2023-04-01T18:27:55.854Z,100040.94
2023-04-01T18:30:30.444Z,100022.69
2023-04-01T18:33:02.975Z,100084.94
2023-04-01T18:35:47.042Z,100060.44
2023-04-01T18:38:21.132Z,100078.09
2023-04-01T18:40:54.416Z,100097.56
2023-04-01T18:43:38.566Z,100086.97
2023-04-01T18:46:14.503Z,100087.88
2023-04-01T18:48:51.642Z,100127.38
2023-04-01T18:51:23.670Z,100102.84
2023-04-01T18:53:59.442Z,100086.38
2023-04-01T18:56:31.351Z,100081.19
2023-04-01T18:59:07.788Z,100100.53
2023-04-01T19:01:42.138Z,100066.53
2023-04-01T19:04:24.644Z,100048.06
2023-04-01T19:06:55.837Z,100032.25
2023-04-01T19:09:28.153Z,100056.09
2023-04-01T19:12:21.855Z,100045.59
2023-04-01T19:15:01.944Z,100073.81
2023-04-01T19:17:45.396Z,100084.34
2023-04-01T19:20:22.321Z,100114.22
2023-04-01T19:23:09.964Z,100086.19
2023-04-01T19:25:42.200Z,100069.69
2023-04-01T19:28:24.720Z,100111.72
2023-04-01T19:30:59.224Z,100084.47
2023-04-01T19:34:01.813Z,100085.44
2023-04-01T19:36:37.974Z,100038.91
2023-04-01T19:39:20.445Z,100050.19
2023-04-01T19:41:57.914Z,100070.53
2023-04-01T19:44:38.970Z,100044.19
2023-04-01T19:47:19.234Z,100051.25
2023-04-01T19:50:00.747Z,100047.84
2023-04-01T19:52:33.778Z,100066.34
2023-04-01T19:55:14.115Z,100121.31
2023-04-01T19:57:51.257Z,100060.91
2023-04-01T20:00:26.664Z,100081.03
2023-04-01T20:03:13.550Z,100066.06
2023-04-01T20:05:52.127Z,100059.94
2023-04-01T20:08:31.586Z,100057.41
2023-04-01T20:11:09.748Z,100078.59
2023-04-01T20:13:49.133Z,100072.50
2023-04-01T20:16:17.632Z,100071.72
2023-04-01T20:18:53.993Z,100088.47
2023-04-01T20:21:37.024Z,100073.41
2023-04-01T20:24:16.875Z,100058.31
2023-04-01T20:26:49.866Z,100003.44
2023-04-01T20:29:49.320Z,100021.94
2023-04-01T20:32:31.678Z,100055.00
2023-04-01T20:35:36.266Z,100022.03
2023-04-01T20:38:32.224Z,100004.38
2023-04-01T20:41:07.128Z,100028.97
2023-04-01T20:44:00.257Z,99999.28
2023-04-01T20:46:39.958Z,100014.28
2023-04-01T20:49:48.516Z,99980.91
2023-04-01T20:52:28.702Z,99999.19
2023-04-01T20:55:23.922Z,99953.72
2023-04-01T20:58:02.004Z,99922.44
2023-04-01T21:00:38.898Z,99939.06
2023-04-01T21:03:25.194Z,99916.34
2023-04-01T21:06:17.759Z,99908.59
2023-04-01T21:09:00.995Z,99880.47
2023-04-01T21:11:37.904Z,99902.31
2023-04-01T21:14:45.279Z,99850.63
2023-04-01T21:17:20.199Z,99940.03
2023-04-01T21:20:03.281Z,99885.59
2023-04-01T21:22:47.425Z,99869.03
2023-04-01T21:25:30.260Z,99860.25
2023-04-01T21:28:23.210Z,99881.31
2023-04-01T21:31:15.071Z,99833.03
2023-04-01T21:34:16.544Z,99848.88
2023-04-01T21:37:00.108Z,99875.34
2023-04-01T21:39:48.717Z,99929.72
2023-04-01T21:42:35.886Z,99907.81
2023-04-01T21:45:22.805Z,99883.84
2023-04-01T21:48:29.041Z,99792.66
2023-04-01T21:51:24.128Z,99762.91
2023-04-01T21:54:24.141Z,99789.84
2023-04-01T21:57:35.192Z,99710.19
2023-04-01T22:00:17.504Z,99769.81
2023-04-01T22:03:26.756Z,99809.38
2023-04-01T22:06:02.687Z,99777.94
2023-04-01T22:08:49.933Z,99810.47
2023-04-01T22:11:33.289Z,99835.16
2023-04-01T22:14:07.420Z,99814.06
2023-04-01T22:16:41.764Z,99878.06
2023-04-01T22:19:17.626Z,99812.28
2023-04-01T22:21:53.094Z,99787.66
2023-04-01T22:24:28.445Z,99767.53
2023-04-01T22:27:04.274Z,99742.22
2023-04-01T22:29:38.848Z,99764.13
2023-04-01T22:32:17.400Z,99790.44
2023-04-01T22:34:55.393Z,99724.66
2023-04-01T22:37:33.151Z,99726.41
2023-04-01T22:40:17.465Z,99743.19
2023-04-01T22:42:48.976Z,99726.72
2023-04-01T22:45:36.745Z,99759.22
2023-04-01T22:48:13.713Z,99762.75
2023-04-01T22:50:47.389Z,99764.50
2023-04-01T22:53:25.951Z,99793.47
2023-04-01T22:55:56.987Z,99788.28
2023-04-01T22:58:32.945Z,99759.44
2023-04-01T23:01:03.879Z,99789.94
2023-04-01T23:03:34.347Z,99773.22
2023-04-01T23:06:04.277Z,99697.13
2023-04-01T23:09:05.926Z,99727.66
2023-04-01T23:11:37.800Z,99700.53
2023-04-01T23:14:32.797Z,99688.34
2023-04-01T23:17:10.061Z,99704.00
2023-04-01T23:19:57.976Z,99735.63
2023-04-01T23:22:34.247Z,99689.44
2023-04-01T23:25:18.316Z,99713.03
2023-04-01T23:27:54.161Z,99745.44
2023-04-01T23:30:52.027Z,99809.63
2023-04-01T23:33:30.189Z,99828.16
2023-04-01T23:36:06.197Z,99877.16
2023-04-01T23:38:37.468Z,99863.97
2023-04-01T23:41:06.714Z,99920.09
2023-04-01T23:43:38.923Z,99941.13
2023-04-01T23:46:09.635Z,99917.53
2023-04-01T23:48:39.831Z,99897.44
2023-04-01T23:51:15.552Z,99935.34
2023-04-01T23:53:47.030Z,99971.25
2023-04-01T23:56:18.068Z,99918.69
2023-04-01T23:58:50.196Z,99890.53
